sensor_id;sensor_type;location;lat;lon;timestamp;P1;durP1;ratioP1;P2;durP2;ratioP2
76548;SDS011;65391;52.068;4.542;2023-03-14T00:00:07;12;;;2.7;;
76548;SDS011;65391;52.068;4.542;2023-03-14T00:02:30;12;;;2.7;;
76548;SDS011;65391;52.068;4.542;2023-03-14T00:04:55;12;;;2.7;;
76548;SDS011;65391;52.068;4.542;2023-03-14T00:07:20;12;;;2.7;;
76548;SDS011;65391;52.068;4.542;2023-03-14T00:09:45;9.7;;;2.3;;
76548;SDS011;65391;52.068;4.542;2023-03-14T00:12:11;9.7;;;2.3;;
76548;SDS011;65391;52.068;4.542;2023-03-14T00:14:35;9.7;;;2.3;;
76548;SDS011;65391;52.068;4.542;2023-03-14T00:17:00;9.7;;;2.3;;
76548;SDS011;65391;52.068;4.542;2023-03-14T00:19:26;11.3;;;2.3;;
76548;SDS011;65391;52.068;4.542;2023-03-14T00:21:50;11.3;;;2.3;;
76548;SDS011;65391;52.068;4.542;2023-03-14T00:24:16;11.3;;;2.3;;
76548;SDS011;65391;52.068;4.542;2023-03-14T00:26:40;11.3;;;2.3;;
76548;SDS011;65391;52.068;4.542;2023-03-14T00:29:05;6.4;;;1.4;;
76548;SDS011;65391;52.068;4.542;2023-03-14T00:31:30;6.4;;;1.4;;
76548;SDS011;65391;52.068;4.542;2023-03-14T00:33:56;6.4;;;1.4;;
76548;SDS011;65391;52.068;4.542;2023-03-14T00:36:21;6.4;;;1.4;;
76548;SDS011;65391;52.068;4.542;2023-03-14T00:38:47;8.7;;;2;;
76548;SDS011;65391;52.068;4.542;2023-03-14T00:41:12;8.7;;;2;;
76548;SDS011;65391;52.068;4.542;2023-03-14T00:43:36;8.7;;;2;;
76548;SDS011;65391;52.068;4.542;2023-03-14T00:46:00;8.7;;;2;;
76548;SDS011;65391;52.068;4.542;2023-03-14T00:48:26;13.9;;;2.2;;
76548;SDS011;65391;52.068;4.542;2023-03-14T00:50:51;13.9;;;2.2;;
76548;SDS011;65391;52.068;4.542;2023-03-14T00:53:16;13.9;;;2.2;;
76548;SDS011;65391;52.068;4.542;2023-03-14T00:55:41;13.9;;;2.2;;
76548;SDS011;65391;52.068;4.542;2023-03-14T00:58:06;9.5;;;2.6;;
76548;SDS011;65391;52.068;4.542;2023-03-14T01:00:31;9.5;;;2.6;;
76548;SDS011;65391;52.068;4.542;2023-03-14T01:02:56;9.5;;;2.6;;
76548;SDS011;65391;52.068;4.542;2023-03-14T01:05:21;9.5;;;2.6;;
76548;SDS011;65391;52.068;4.542;2023-03-14T01:07:46;9.5;;;2.6;;
76548;SDS011;65391;52.068;4.542;2023-03-14T01:10:11;13.7;;;2.2;;
76548;SDS011;65391;52.068;4.542;2023-03-14T01:12:36;13.7;;;2.2;;
76548;SDS011;65391;52.068;4.542;2023-03-14T01:15:01;13.7;;;2.2;;
76548;SDS011;65391;52.068;4.542;2023-03-14T01:17:26;13.7;;;2.2;;
76548;SDS011;65391;52.068;4.542;2023-03-14T01:19:51;13.9;;;2.8;;
76548;SDS011;65391;52.068;4.542;2023-03-14T01:22:16;13.9;;;2.8;;
76548;SDS011;65391;52.068;4.542;2023-03-14T01:24:41;13.9;;;2.8;;
76548;SDS011;65391;52.068;4.542;2023-03-14T01:27:06;13.9;;;2.8;;
76548;SDS011;65391;52.068;4.542;2023-03-14T01:29:31;10.1;;;2;;
76548;SDS011;65391;52.068;4.542;2023-03-14T01:31:56;10.1;;;2;;
76548;SDS011;65391;52.068;4.542;2023-03-14T01:34:21;10.1;;;2;;
76548;SDS011;65391;52.068;4.542;2023-03-14T01:36:46;10.1;;;2;;
76548;SDS011;65391;52.068;4.542;2023-03-14T01:39:11;11.9;;;2.9;;
76548;SDS011;65391;52.068;4.542;2023-03-14T01:41:36;11.9;;;2.9;;
76548;SDS011;65391;52.068;4.542;2023-03-14T01:44:01;11.9;;;2.9;;
76548;SDS011;65391;52.068;4.542;2023-03-14T01:46:29;11.9;;;2.9;;
76548;SDS011;65391;52.068;4.542;2023-03-14T01:48:54;7.6;;;1.8;;
76548;SDS011;65391;52.068;4.542;2023-03-14T01:51:17;7.6;;;1.8;;
76548;SDS011;65391;52.068;4.542;2023-03-14T01:53:41;7.6;;;1.8;;
76548;SDS011;65391;52.068;4.542;2023-03-14T01:56:07;7.6;;;1.8;;
76548;SDS011;65391;52.068;4.542;2023-03-14T01:58:31;13.7;;;2.6;;
76548;SDS011;65391;52.068;4.542;2023-03-14T02:00:56;13.7;;;2.6;;
76548;SDS011;65391;52.068;4.542;2023-03-14T02:03:21;13.7;;;2.6;;
76548;SDS011;65391;52.068;4.542;2023-03-14T02:05:46;13.7;;;2.6;;
76548;SDS011;65391;52.068;4.542;2023-03-14T02:08:12;13;;;2.4;;
76548;SDS011;65391;52.068;4.542;2023-03-14T02:10:38;13;;;2.4;;
76548;SDS011;65391;52.068;4.542;2023-03-14T02:13:02;13;;;2.4;;
76548;SDS011;65391;52.068;4.542;2023-03-14T02:15:26;13;;;2.4;;
76548;SDS011;65391;52.068;4.542;2023-03-14T02:17:51;13;;;2.4;;
76548;SDS011;65391;52.068;4.542;2023-03-14T02:20:24;10.2;;;1.6;;
76548;SDS011;65391;52.068;4.542;2023-03-14T02:22:42;10.2;;;1.6;;
76548;SDS011;65391;52.068;4.542;2023-03-14T02:25:08;10.2;;;1.6;;
76548;SDS011;65391;52.068;4.542;2023-03-14T02:27:31;10.2;;;1.6;;
76548;SDS011;65391;52.068;4.542;2023-03-14T02:29:57;10.8;;;1.8;;
76548;SDS011;65391;52.068;4.542;2023-03-14T02:32:21;10.8;;;1.8;;
76548;SDS011;65391;52.068;4.542;2023-03-14T02:34:48;10.8;;;1.8;;
76548;SDS011;65391;52.068;4.542;2023-03-14T02:37:11;10.8;;;1.8;;
76548;SDS011;65391;52.068;4.542;2023-03-14T02:39:37;11.8;;;1.7;;
76548;SDS011;65391;52.068;4.542;2023-03-14T02:42:01;11.8;;;1.7;;
76548;SDS011;65391;52.068;4.542;2023-03-14T02:44:26;11.8;;;1.7;;
76548;SDS011;65391;52.068;4.542;2023-03-14T02:46:51;11.8;;;1.7;;
76548;SDS011;65391;52.068;4.542;2023-03-14T02:49:16;11.4;;;1.9;;
76548;SDS011;65391;52.068;4.542;2023-03-14T02:51:41;11.4;;;1.9;;
76548;SDS011;65391;52.068;4.542;2023-03-14T02:54:06;11.4;;;1.9;;
76548;SDS011;65391;52.068;4.542;2023-03-14T02:56:31;11.4;;;1.9;;
76548;SDS011;65391;52.068;4.542;2023-03-14T02:58:56;9.7;;;1.8;;
76548;SDS011;65391;52.068;4.542;2023-03-14T03:01:21;9.7;;;1.8;;
76548;SDS011;65391;52.068;4.542;2023-03-14T03:03:46;9.7;;;1.8;;
76548;SDS011;65391;52.068;4.542;2023-03-14T03:06:11;9.7;;;1.8;;
76548;SDS011;65391;52.068;4.542;2023-03-14T03:08:36;10.1;;;1.4;;
76548;SDS011;65391;52.068;4.542;2023-03-14T03:11:01;10.1;;;1.4;;
76548;SDS011;65391;52.068;4.542;2023-03-14T03:13:26;10.1;;;1.4;;
76548;SDS011;65391;52.068;4.542;2023-03-14T03:15:51;10.1;;;1.4;;
76548;SDS011;65391;52.068;4.542;2023-03-14T03:18:16;11.1;;;2;;
76548;SDS011;65391;52.068;4.542;2023-03-14T03:20:41;11.1;;;2;;
76548;SDS011;65391;52.068;4.542;2023-03-14T03:23:06;11.1;;;2;;
76548;SDS011;65391;52.068;4.542;2023-03-14T03:25:31;11.1;;;2;;
76548;SDS011;65391;52.068;4.542;2023-03-14T03:27:56;11.1;;;2;;
76548;SDS011;65391;52.068;4.542;2023-03-14T03:30:21;10;;;2.3;;
76548;SDS011;65391;52.068;4.542;2023-03-14T03:32:46;10;;;2.3;;
76548;SDS011;65391;52.068;4.542;2023-03-14T03:35:11;10;;;2.3;;
76548;SDS011;65391;52.068;4.542;2023-03-14T03:37:36;10;;;2.3;;
76548;SDS011;65391;52.068;4.542;2023-03-14T03:40:01;7.9;;;1.6;;
76548;SDS011;65391;52.068;4.542;2023-03-14T03:42:26;7.9;;;1.6;;
76548;SDS011;65391;52.068;4.542;2023-03-14T03:44:51;7.9;;;1.6;;
76548;SDS011;65391;52.068;4.542;2023-03-14T03:47:16;7.9;;;1.6;;
76548;SDS011;65391;52.068;4.542;2023-03-14T03:49:41;8.5;;;2.2;;
76548;SDS011;65391;52.068;4.542;2023-03-14T03:52:06;8.5;;;2.2;;
76548;SDS011;65391;52.068;4.542;2023-03-14T03:54:31;8.5;;;2.2;;
76548;SDS011;65391;52.068;4.542;2023-03-14T03:56:56;8.5;;;2.2;;
76548;SDS011;65391;52.068;4.542;2023-03-14T03:59:21;12.7;;;2.6;;
76548;SDS011;65391;52.068;4.542;2023-03-14T04:01:46;12.7;;;2.6;;
76548;SDS011;65391;52.068;4.542;2023-03-14T04:04:11;12.7;;;2.6;;
76548;SDS011;65391;52.068;4.542;2023-03-14T04:06:36;12.7;;;2.6;;
76548;SDS011;65391;52.068;4.542;2023-03-14T04:09:01;7.8;;;2.1;;
76548;SDS011;65391;52.068;4.542;2023-03-14T04:11:26;7.8;;;2.1;;
76548;SDS011;65391;52.068;4.542;2023-03-14T04:13:51;7.8;;;2.1;;
76548;SDS011;65391;52.068;4.542;2023-03-14T04:16:18;7.8;;;2.1;;
76548;SDS011;65391;52.068;4.542;2023-03-14T04:18:41;9.6;;;1.6;;
76548;SDS011;65391;52.068;4.542;2023-03-14T04:21:06;9.6;;;1.6;;
76548;SDS011;65391;52.068;4.542;2023-03-14T04:23:31;9.6;;;1.6;;
76548;SDS011;65391;52.068;4.542;2023-03-14T04:25:57;9.6;;;1.6;;
76548;SDS011;65391;52.068;4.542;2023-03-14T04:28:21;8.8;;;1.6;;
76548;SDS011;65391;52.068;4.542;2023-03-14T04:30:46;8.8;;;1.6;;
76548;SDS011;65391;52.068;4.542;2023-03-14T04:33:11;8.8;;;1.6;;
76548;SDS011;65391;52.068;4.542;2023-03-14T04:35:36;8.8;;;1.6;;
76548;SDS011;65391;52.068;4.542;2023-03-14T04:38:01;8.8;;;1.6;;
76548;SDS011;65391;52.068;4.542;2023-03-14T04:40:26;7.9;;;1.8;;
76548;SDS011;65391;52.068;4.542;2023-03-14T04:42:51;7.9;;;1.8;;
76548;SDS011;65391;52.068;4.542;2023-03-14T04:45:17;7.9;;;1.8;;
76548;SDS011;65391;52.068;4.542;2023-03-14T04:47:41;7.9;;;1.8;;
76548;SDS011;65391;52.068;4.542;2023-03-14T04:50:07;8.9;;;2.1;;
76548;SDS011;65391;52.068;4.542;2023-03-14T04:52:31;8.9;;;2.1;;
76548;SDS011;65391;52.068;4.542;2023-03-14T04:54:56;8.9;;;2.1;;
76548;SDS011;65391;52.068;4.542;2023-03-14T04:57:21;8.9;;;2.1;;
76548;SDS011;65391;52.068;4.542;2023-03-14T04:59:46;11.2;;;1.6;;
76548;SDS011;65391;52.068;4.542;2023-03-14T05:02:11;11.2;;;1.6;;
76548;SDS011;65391;52.068;4.542;2023-03-14T05:04:36;11.2;;;1.6;;
76548;SDS011;65391;52.068;4.542;2023-03-14T05:07:01;11.2;;;1.6;;
76548;SDS011;65391;52.068;4.542;2023-03-14T05:09:26;9.7;;;2.1;;
76548;SDS011;65391;52.068;4.542;2023-03-14T05:11:51;9.7;;;2.1;;
76548;SDS011;65391;52.068;4.542;2023-03-14T05:14:16;9.7;;;2.1;;
76548;SDS011;65391;52.068;4.542;2023-03-14T05:16:41;9.7;;;2.1;;
76548;SDS011;65391;52.068;4.542;2023-03-14T05:19:06;3.6;;;1.4;;
76548;SDS011;65391;52.068;4.542;2023-03-14T05:21:31;3.6;;;1.4;;
76548;SDS011;65391;52.068;4.542;2023-03-14T05:23:56;3.6;;;1.4;;
76548;SDS011;65391;52.068;4.542;2023-03-14T05:26:21;3.6;;;1.4;;
76548;SDS011;65391;52.068;4.542;2023-03-14T05:28:46;6.9;;;1.8;;
76548;SDS011;65391;52.068;4.542;2023-03-14T05:31:11;6.9;;;1.8;;
76548;SDS011;65391;52.068;4.542;2023-03-14T05:33:36;6.9;;;1.8;;
76548;SDS011;65391;52.068;4.542;2023-03-14T05:36:01;6.9;;;1.8;;
76548;SDS011;65391;52.068;4.542;2023-03-14T05:38:26;9.7;;;1.2;;
76548;SDS011;65391;52.068;4.542;2023-03-14T05:40:51;9.7;;;1.2;;
76548;SDS011;65391;52.068;4.542;2023-03-14T05:43:16;9.7;;;1.2;;
76548;SDS011;65391;52.068;4.542;2023-03-14T05:45:42;9.7;;;1.2;;
76548;SDS011;65391;52.068;4.542;2023-03-14T05:48:06;9.7;;;1.2;;
76548;SDS011;65391;52.068;4.542;2023-03-14T05:50:31;6.5;;;1.1;;
76548;SDS011;65391;52.068;4.542;2023-03-14T05:52:56;6.5;;;1.1;;
76548;SDS011;65391;52.068;4.542;2023-03-14T05:55:21;6.5;;;1.1;;
76548;SDS011;65391;52.068;4.542;2023-03-14T05:57:46;6.5;;;1.1;;
76548;SDS011;65391;52.068;4.542;2023-03-14T06:00:12;4.1;;;0.7;;
76548;SDS011;65391;52.068;4.542;2023-03-14T06:02:36;4.1;;;0.7;;
76548;SDS011;65391;52.068;4.542;2023-03-14T06:05:01;4.1;;;0.7;;
76548;SDS011;65391;52.068;4.542;2023-03-14T06:07:26;4.1;;;0.7;;
76548;SDS011;65391;52.068;4.542;2023-03-14T06:09:51;4.9;;;0.9;;
76548;SDS011;65391;52.068;4.542;2023-03-14T06:12:16;4.9;;;0.9;;
76548;SDS011;65391;52.068;4.542;2023-03-14T06:14:41;4.9;;;0.9;;
76548;SDS011;65391;52.068;4.542;2023-03-14T06:17:06;4.9;;;0.9;;
76548;SDS011;65391;52.068;4.542;2023-03-14T06:19:31;4.6;;;0.6;;
76548;SDS011;65391;52.068;4.542;2023-03-14T06:21:56;4.6;;;0.6;;
76548;SDS011;65391;52.068;4.542;2023-03-14T06:24:21;4.6;;;0.6;;
76548;SDS011;65391;52.068;4.542;2023-03-14T06:26:46;4.6;;;0.6;;
76548;SDS011;65391;52.068;4.542;2023-03-14T06:29:11;4.9;;;0.4;;
76548;SDS011;65391;52.068;4.542;2023-03-14T06:31:36;4.9;;;0.4;;
76548;SDS011;65391;52.068;4.542;2023-03-14T06:34:01;4.9;;;0.4;;
76548;SDS011;65391;52.068;4.542;2023-03-14T06:36:27;4.9;;;0.4;;
76548;SDS011;65391;52.068;4.542;2023-03-14T06:38:51;4.9;;;0.4;;
76548;SDS011;65391;52.068;4.542;2023-03-14T06:41:17;4.9;;;0.4;;
76548;SDS011;65391;52.068;4.542;2023-03-14T06:43:41;4.9;;;0.4;;
76548;SDS011;65391;52.068;4.542;2023-03-14T06:46:06;4.9;;;0.4;;
76548;SDS011;65391;52.068;4.542;2023-03-14T06:48:31;6.7;;;0.9;;
76548;SDS011;65391;52.068;4.542;2023-03-14T06:50:57;6.7;;;0.9;;
76548;SDS011;65391;52.068;4.542;2023-03-14T06:53:21;6.7;;;0.9;;
76548;SDS011;65391;52.068;4.542;2023-03-14T06:55:46;6.7;;;0.9;;
76548;SDS011;65391;52.068;4.542;2023-03-14T06:58:11;6.7;;;0.9;;
76548;SDS011;65391;52.068;4.542;2023-03-14T07:00:36;8.6;;;0.9;;
76548;SDS011;65391;52.068;4.542;2023-03-14T07:03:01;8.6;;;0.9;;
76548;SDS011;65391;52.068;4.542;2023-03-14T07:05:26;8.6;;;0.9;;
76548;SDS011;65391;52.068;4.542;2023-03-14T07:07:51;8.6;;;0.9;;
76548;SDS011;65391;52.068;4.542;2023-03-14T07:10:17;7.4;;;0.9;;
76548;SDS011;65391;52.068;4.542;2023-03-14T07:12:41;7.4;;;0.9;;
76548;SDS011;65391;52.068;4.542;2023-03-14T07:15:07;7.4;;;0.9;;
76548;SDS011;65391;52.068;4.542;2023-03-14T07:17:32;7.4;;;0.9;;
76548;SDS011;65391;52.068;4.542;2023-03-14T07:19:56;8.8;;;1.3;;
76548;SDS011;65391;52.068;4.542;2023-03-14T07:22:21;8.8;;;1.3;;
76548;SDS011;65391;52.068;4.542;2023-03-14T07:24:46;8.8;;;1.3;;
76548;SDS011;65391;52.068;4.542;2023-03-14T07:27:11;8.8;;;1.3;;
76548;SDS011;65391;52.068;4.542;2023-03-14T07:29:36;8.1;;;1;;
76548;SDS011;65391;52.068;4.542;2023-03-14T07:32:02;8.1;;;1;;
76548;SDS011;65391;52.068;4.542;2023-03-14T07:34:26;8.1;;;1;;
76548;SDS011;65391;52.068;4.542;2023-03-14T07:36:51;8.1;;;1;;
76548;SDS011;65391;52.068;4.542;2023-03-14T07:39:16;3.5;;;1;;
76548;SDS011;65391;52.068;4.542;2023-03-14T07:41:41;3.5;;;1;;
76548;SDS011;65391;52.068;4.542;2023-03-14T07:44:06;3.5;;;1;;
76548;SDS011;65391;52.068;4.542;2023-03-14T07:46:32;3.5;;;1;;
76548;SDS011;65391;52.068;4.542;2023-03-14T07:48:56;9.7;;;0.9;;
76548;SDS011;65391;52.068;4.542;2023-03-14T07:51:21;9.7;;;0.9;;
76548;SDS011;65391;52.068;4.542;2023-03-14T07:53:46;9.7;;;0.9;;
76548;SDS011;65391;52.068;4.542;2023-03-14T07:56:11;9.7;;;0.9;;
76548;SDS011;65391;52.068;4.542;2023-03-14T07:58:37;9.7;;;0.9;;
76548;SDS011;65391;52.068;4.542;2023-03-14T08:01:02;11.1;;;2.1;;
76548;SDS011;65391;52.068;4.542;2023-03-14T08:03:26;11.1;;;2.1;;
76548;SDS011;65391;52.068;4.542;2023-03-14T08:05:52;11.1;;;2.1;;
76548;SDS011;65391;52.068;4.542;2023-03-14T08:08:17;11.1;;;2.1;;
76548;SDS011;65391;52.068;4.542;2023-03-14T08:10:42;6.5;;;1.2;;
76548;SDS011;65391;52.068;4.542;2023-03-14T08:13:07;6.5;;;1.2;;
76548;SDS011;65391;52.068;4.542;2023-03-14T08:15:32;6.5;;;1.2;;
76548;SDS011;65391;52.068;4.542;2023-03-14T08:17:57;6.5;;;1.2;;
76548;SDS011;65391;52.068;4.542;2023-03-14T08:20:26;6.9;;;1.5;;
76548;SDS011;65391;52.068;4.542;2023-03-14T08:22:47;6.9;;;1.5;;
76548;SDS011;65391;52.068;4.542;2023-03-14T08:25:12;6.9;;;1.5;;
76548;SDS011;65391;52.068;4.542;2023-03-14T08:27:37;6.9;;;1.5;;
76548;SDS011;65391;52.068;4.542;2023-03-14T08:30:02;5.5;;;1.1;;
76548;SDS011;65391;52.068;4.542;2023-03-14T08:32:27;5.5;;;1.1;;
76548;SDS011;65391;52.068;4.542;2023-03-14T08:34:52;5.5;;;1.1;;
76548;SDS011;65391;52.068;4.542;2023-03-14T08:37:17;5.5;;;1.1;;
76548;SDS011;65391;52.068;4.542;2023-03-14T08:39:42;6;;;1.1;;
76548;SDS011;65391;52.068;4.542;2023-03-14T08:42:07;6;;;1.1;;
76548;SDS011;65391;52.068;4.542;2023-03-14T08:44:32;6;;;1.1;;
76548;SDS011;65391;52.068;4.542;2023-03-14T08:46:57;6;;;1.1;;
76548;SDS011;65391;52.068;4.542;2023-03-14T08:49:22;11.8;;;1.7;;
76548;SDS011;65391;52.068;4.542;2023-03-14T08:51:47;11.8;;;1.7;;
76548;SDS011;65391;52.068;4.542;2023-03-14T08:54:12;11.8;;;1.7;;
76548;SDS011;65391;52.068;4.542;2023-03-14T08:56:37;11.8;;;1.7;;
76548;SDS011;65391;52.068;4.542;2023-03-14T08:59:02;8.8;;;0.9;;
76548;SDS011;65391;52.068;4.542;2023-03-14T09:01:27;8.8;;;0.9;;
76548;SDS011;65391;52.068;4.542;2023-03-14T09:03:52;8.8;;;0.9;;
76548;SDS011;65391;52.068;4.542;2023-03-14T09:06:17;8.8;;;0.9;;
76548;SDS011;65391;52.068;4.542;2023-03-14T09:08:42;8.8;;;0.9;;
76548;SDS011;65391;52.068;4.542;2023-03-14T09:11:07;12.2;;;2.3;;
76548;SDS011;65391;52.068;4.542;2023-03-14T09:13:32;12.2;;;2.3;;
76548;SDS011;65391;52.068;4.542;2023-03-14T09:15:57;12.2;;;2.3;;
76548;SDS011;65391;52.068;4.542;2023-03-14T09:18:22;12.2;;;2.3;;
76548;SDS011;65391;52.068;4.542;2023-03-14T09:20:47;10.1;;;2.8;;
76548;SDS011;65391;52.068;4.542;2023-03-14T09:23:12;10.1;;;2.8;;
76548;SDS011;65391;52.068;4.542;2023-03-14T09:25:37;10.1;;;2.8;;
76548;SDS011;65391;52.068;4.542;2023-03-14T09:28:02;10.1;;;2.8;;
76548;SDS011;65391;52.068;4.542;2023-03-14T09:30:27;14.7;;;2.7;;
76548;SDS011;65391;52.068;4.542;2023-03-14T09:32:52;14.7;;;2.7;;
76548;SDS011;65391;52.068;4.542;2023-03-14T09:35:17;14.7;;;2.7;;
76548;SDS011;65391;52.068;4.542;2023-03-14T09:37:42;14.7;;;2.7;;
76548;SDS011;65391;52.068;4.542;2023-03-14T09:40:11;13.2;;;3;;
76548;SDS011;65391;52.068;4.542;2023-03-14T09:42:32;13.2;;;3;;
76548;SDS011;65391;52.068;4.542;2023-03-14T09:44:59;13.2;;;3;;
76548;SDS011;65391;52.068;4.542;2023-03-14T09:47:22;13.2;;;3;;
76548;SDS011;65391;52.068;4.542;2023-03-14T09:49:47;13.8;;;2.6;;
76548;SDS011;65391;52.068;4.542;2023-03-14T09:52:13;13.8;;;2.6;;
76548;SDS011;65391;52.068;4.542;2023-03-14T09:54:38;13.8;;;2.6;;
76548;SDS011;65391;52.068;4.542;2023-03-14T09:57:02;13.8;;;2.6;;
76548;SDS011;65391;52.068;4.542;2023-03-14T09:59:27;15.8;;;3.7;;
76548;SDS011;65391;52.068;4.542;2023-03-14T10:01:52;15.8;;;3.7;;
76548;SDS011;65391;52.068;4.542;2023-03-14T10:04:18;15.8;;;3.7;;
76548;SDS011;65391;52.068;4.542;2023-03-14T10:06:42;15.8;;;3.7;;
76548;SDS011;65391;52.068;4.542;2023-03-14T10:09:08;14.9;;;2.4;;
76548;SDS011;65391;52.068;4.542;2023-03-14T10:11:32;14.9;;;2.4;;
76548;SDS011;65391;52.068;4.542;2023-03-14T10:14:06;14.9;;;2.4;;
76548;SDS011;65391;52.068;4.542;2023-03-14T10:16:27;14.9;;;2.4;;
76548;SDS011;65391;52.068;4.542;2023-03-14T10:18:47;14.9;;;2.4;;
76548;SDS011;65391;52.068;4.542;2023-03-14T10:21:17;15.7;;;3.4;;
76548;SDS011;65391;52.068;4.542;2023-03-14T10:23:37;15.7;;;3.4;;
76548;SDS011;65391;52.068;4.542;2023-03-14T10:26:06;15.7;;;3.4;;
76548;SDS011;65391;52.068;4.542;2023-03-14T10:28:28;15.7;;;3.4;;
76548;SDS011;65391;52.068;4.542;2023-03-14T10:30:52;17.7;;;4.3;;
76548;SDS011;65391;52.068;4.542;2023-03-14T10:33:20;17.7;;;4.3;;
76548;SDS011;65391;52.068;4.542;2023-03-14T10:35:42;17.7;;;4.3;;
76548;SDS011;65391;52.068;4.542;2023-03-14T10:38:12;17.7;;;4.3;;
76548;SDS011;65391;52.068;4.542;2023-03-14T10:40:33;14;;;4.2;;
76548;SDS011;65391;52.068;4.542;2023-03-14T10:42:57;14;;;4.2;;
76548;SDS011;65391;52.068;4.542;2023-03-14T10:45:28;14;;;4.2;;
76548;SDS011;65391;52.068;4.542;2023-03-14T10:47:48;14;;;4.2;;
76548;SDS011;65391;52.068;4.542;2023-03-14T10:50:23;18.1;;;4.5;;
76548;SDS011;65391;52.068;4.542;2023-03-14T10:52:37;18.1;;;4.5;;
76548;SDS011;65391;52.068;4.542;2023-03-14T10:55:09;18.1;;;4.5;;
76548;SDS011;65391;52.068;4.542;2023-03-14T10:57:27;18.1;;;4.5;;
76548;SDS011;65391;52.068;4.542;2023-03-14T10:59:53;18.6;;;4;;
76548;SDS011;65391;52.068;4.542;2023-03-14T11:02:27;18.6;;;4;;
76548;SDS011;65391;52.068;4.542;2023-03-14T11:04:49;18.6;;;4;;
76548;SDS011;65391;52.068;4.542;2023-03-14T11:07:09;18.6;;;4;;
76548;SDS011;65391;52.068;4.542;2023-03-14T11:09:34;19.2;;;4.3;;
76548;SDS011;65391;52.068;4.542;2023-03-14T11:12:02;19.2;;;4.3;;
76548;SDS011;65391;52.068;4.542;2023-03-14T11:14:26;19.2;;;4.3;;
76548;SDS011;65391;52.068;4.542;2023-03-14T11:16:52;19.2;;;4.3;;
76548;SDS011;65391;52.068;4.542;2023-03-14T11:19:17;17.7;;;2.8;;
76548;SDS011;65391;52.068;4.542;2023-03-14T11:21:38;17.7;;;2.8;;
76548;SDS011;65391;52.068;4.542;2023-03-14T11:24:13;17.7;;;2.8;;
76548;SDS011;65391;52.068;4.542;2023-03-14T11:26:30;17.7;;;2.8;;
76548;SDS011;65391;52.068;4.542;2023-03-14T11:28:55;17.7;;;2.8;;
76548;SDS011;65391;52.068;4.542;2023-03-14T11:31:19;10.6;;;1.8;;
76548;SDS011;65391;52.068;4.542;2023-03-14T11:33:46;10.6;;;1.8;;
76548;SDS011;65391;52.068;4.542;2023-03-14T11:36:08;10.6;;;1.8;;
76548;SDS011;65391;52.068;4.542;2023-03-14T11:38:34;10.6;;;1.8;;
76548;SDS011;65391;52.068;4.542;2023-03-14T11:40:58;17.8;;;3.1;;
76548;SDS011;65391;52.068;4.542;2023-03-14T11:43:25;17.8;;;3.1;;
76548;SDS011;65391;52.068;4.542;2023-03-14T11:45:48;17.8;;;3.1;;
76548;SDS011;65391;52.068;4.542;2023-03-14T11:48:17;17.8;;;3.1;;
76548;SDS011;65391;52.068;4.542;2023-03-14T11:50:37;11.1;;;1.9;;
76548;SDS011;65391;52.068;4.542;2023-03-14T11:53:05;11.1;;;1.9;;
76548;SDS011;65391;52.068;4.542;2023-03-14T11:55:28;11.1;;;1.9;;
76548;SDS011;65391;52.068;4.542;2023-03-14T11:57:53;11.1;;;1.9;;
76548;SDS011;65391;52.068;4.542;2023-03-14T12:00:19;10.4;;;2.3;;
76548;SDS011;65391;52.068;4.542;2023-03-14T12:02:47;10.4;;;2.3;;
76548;SDS011;65391;52.068;4.542;2023-03-14T12:05:26;10.4;;;2.3;;
76548;SDS011;65391;52.068;4.542;2023-03-14T12:07:35;10.4;;;2.3;;
76548;SDS011;65391;52.068;4.542;2023-03-14T12:09:57;5.8;;;2;;
76548;SDS011;65391;52.068;4.542;2023-03-14T12:12:23;5.8;;;2;;
76548;SDS011;65391;52.068;4.542;2023-03-14T12:14:52;5.8;;;2;;
76548;SDS011;65391;52.068;4.542;2023-03-14T12:17:18;5.8;;;2;;
76548;SDS011;65391;52.068;4.542;2023-03-14T12:19:38;10.4;;;2;;
76548;SDS011;65391;52.068;4.542;2023-03-14T12:22:08;10.4;;;2;;
76548;SDS011;65391;52.068;4.542;2023-03-14T12:24:28;10.4;;;2;;
76548;SDS011;65391;52.068;4.542;2023-03-14T12:26:53;10.4;;;2;;
76548;SDS011;65391;52.068;4.542;2023-03-14T12:29:17;8.3;;;1.7;;
76548;SDS011;65391;52.068;4.542;2023-03-14T12:31:43;8.3;;;1.7;;
76548;SDS011;65391;52.068;4.542;2023-03-14T12:34:26;8.3;;;1.7;;
76548;SDS011;65391;52.068;4.542;2023-03-14T12:36:52;8.3;;;1.7;;
76548;SDS011;65391;52.068;4.542;2023-03-14T12:39:00;8.3;;;1.7;;
76548;SDS011;65391;52.068;4.542;2023-03-14T12:41:25;11;;;2.4;;
76548;SDS011;65391;52.068;4.542;2023-03-14T12:43:47;11;;;2.4;;
76548;SDS011;65391;52.068;4.542;2023-03-14T12:46:21;11;;;2.4;;
76548;SDS011;65391;52.068;4.542;2023-03-14T12:48:38;11;;;2.4;;
76548;SDS011;65391;52.068;4.542;2023-03-14T12:51:03;6.3;;;1.5;;
76548;SDS011;65391;52.068;4.542;2023-03-14T12:54:16;6.3;;;1.5;;
76548;SDS011;65391;52.068;4.542;2023-03-14T12:55:54;6.3;;;1.5;;
76548;SDS011;65391;52.068;4.542;2023-03-14T12:58:21;6.3;;;1.5;;
76548;SDS011;65391;52.068;4.542;2023-03-14T13:00:42;6.4;;;1;;
76548;SDS011;65391;52.068;4.542;2023-03-14T13:03:18;6.4;;;1;;
76548;SDS011;65391;52.068;4.542;2023-03-14T13:05:32;6.4;;;1;;
76548;SDS011;65391;52.068;4.542;2023-03-14T13:08:06;6.4;;;1;;
76548;SDS011;65391;52.068;4.542;2023-03-14T13:10:23;8;;;1.1;;
76548;SDS011;65391;52.068;4.542;2023-03-14T13:12:50;8;;;1.1;;
76548;SDS011;65391;52.068;4.542;2023-03-14T13:15:17;8;;;1.1;;
76548;SDS011;65391;52.068;4.542;2023-03-14T13:17:37;8;;;1.1;;
76548;SDS011;65391;52.068;4.542;2023-03-14T13:20:05;4.6;;;1.1;;
76548;SDS011;65391;52.068;4.542;2023-03-14T13:22:28;4.6;;;1.1;;
76548;SDS011;65391;52.068;4.542;2023-03-14T13:24:59;4.6;;;1.1;;
76548;SDS011;65391;52.068;4.542;2023-03-14T13:27:19;4.6;;;1.1;;
76548;SDS011;65391;52.068;4.542;2023-03-14T13:29:43;9.8;;;1.4;;
76548;SDS011;65391;52.068;4.542;2023-03-14T13:32:16;9.8;;;1.4;;
76548;SDS011;65391;52.068;4.542;2023-03-14T13:34:33;9.8;;;1.4;;
76548;SDS011;65391;52.068;4.542;2023-03-14T13:36:58;9.8;;;1.4;;
76548;SDS011;65391;52.068;4.542;2023-03-14T13:39:24;8.3;;;1.2;;
76548;SDS011;65391;52.068;4.542;2023-03-14T13:41:47;8.3;;;1.2;;
76548;SDS011;65391;52.068;4.542;2023-03-14T13:44:14;8.3;;;1.2;;
76548;SDS011;65391;52.068;4.542;2023-03-14T13:46:38;8.3;;;1.2;;
76548;SDS011;65391;52.068;4.542;2023-03-14T13:49:04;8.3;;;1.2;;
76548;SDS011;65391;52.068;4.542;2023-03-14T13:51:27;7.8;;;1.8;;
76548;SDS011;65391;52.068;4.542;2023-03-14T13:53:53;7.8;;;1.8;;
76548;SDS011;65391;52.068;4.542;2023-03-14T13:56:18;7.8;;;1.8;;
76548;SDS011;65391;52.068;4.542;2023-03-14T13:58:42;7.8;;;1.8;;
76548;SDS011;65391;52.068;4.542;2023-03-14T14:01:12;7.2;;;1.4;;
76548;SDS011;65391;52.068;4.542;2023-03-14T14:03:34;7.2;;;1.4;;
76548;SDS011;65391;52.068;4.542;2023-03-14T14:05:57;7.2;;;1.4;;
76548;SDS011;65391;52.068;4.542;2023-03-14T14:08:22;7.2;;;1.4;;
76548;SDS011;65391;52.068;4.542;2023-03-14T14:10:47;11;;;1.5;;
76548;SDS011;65391;52.068;4.542;2023-03-14T14:13:14;11;;;1.5;;
76548;SDS011;65391;52.068;4.542;2023-03-14T14:15:40;11;;;1.5;;
76548;SDS011;65391;52.068;4.542;2023-03-14T14:18:04;11;;;1.5;;
76548;SDS011;65391;52.068;4.542;2023-03-14T14:20:29;7.6;;;1.1;;
76548;SDS011;65391;52.068;4.542;2023-03-14T14:22:52;7.6;;;1.1;;
76548;SDS011;65391;52.068;4.542;2023-03-14T14:25:18;7.6;;;1.1;;
76548;SDS011;65391;52.068;4.542;2023-03-14T14:27:43;7.6;;;1.1;;
76548;SDS011;65391;52.068;4.542;2023-03-14T14:30:25;8;;;1.4;;
76548;SDS011;65391;52.068;4.542;2023-03-14T14:32:35;8;;;1.4;;
76548;SDS011;65391;52.068;4.542;2023-03-14T14:34:59;8;;;1.4;;
76548;SDS011;65391;52.068;4.542;2023-03-14T14:37:24;8;;;1.4;;
76548;SDS011;65391;52.068;4.542;2023-03-14T14:39:48;11.9;;;2.9;;
76548;SDS011;65391;52.068;4.542;2023-03-14T14:42:13;11.9;;;2.9;;
76548;SDS011;65391;52.068;4.542;2023-03-14T14:44:37;11.9;;;2.9;;
76548;SDS011;65391;52.068;4.542;2023-03-14T14:47:03;11.9;;;2.9;;
76548;SDS011;65391;52.068;4.542;2023-03-14T14:49:29;8.3;;;1.6;;
76548;SDS011;65391;52.068;4.542;2023-03-14T14:52:00;8.3;;;1.6;;
76548;SDS011;65391;52.068;4.542;2023-03-14T14:54:18;8.3;;;1.6;;
76548;SDS011;65391;52.068;4.542;2023-03-14T14:56:48;8.3;;;1.6;;
76548;SDS011;65391;52.068;4.542;2023-03-14T14:59:20;8.3;;;1.6;;